Thacker, West Virginia
Current Conditions -  °F | °C
As of 1:15 PM on Friday 28 Nov 2014 (Local Time) from KPBX Reporting Station
Scattered Clouds Scattered Clouds  
Wind Chill: 27°   Ceiling: Unl
Heat Index: 32°   Visibility: 10mi
Dew Point: 18°   Wind: 5mph
Humidity: 56%   Direction: 190°S
Pressure: 30.3"   Gusts: NA
Location:  37.59°N, 82.13°W
Report Text: KPBX 281815Z AUTO 19004KT 10SM SCT070 SCT100 00/M08 A3030 RMK AO2 T00001078
Loading
Personal Weather Stations






























Interactive Weather Map New forecast layout! Learn more

10-Day Weather Forecast

Advertisements
Track Severe Weather on mobile